Scroll down
FLIGHT INFORMATION
Sterling Airlines

SNB4759

At Arrival Gate

LGSA
 EKBI
DATE: 2020-10-01
GATE:  -
GATE DEPARTURE: 21:10
TAKEOFF: 21:21
DATE: 2020-10-02
GATE: G1
LANDING: 00:40
GATE ARRIVAL: 00:47
FLIGHT DATA
Crew: 
Speed: 
895 kph
Altitude: 
38,021 ft
Stage Length: 
2,519.2 km
Block Time: 
3.6 hrs
Flight Time: 
3.3 hrs
Fuel Used: 
8,865 kg
Cleared Route: LGSA SOKRI IXIMA EKTOS VELOP DDM KOR RIMAX XANIS VARDI YNN DIMIS RETRA NIK GAC BOSNA LURID VEBAL SASAL LANUX OKF VLM RISUK HDO UNRIG ESIKA SUKIP SOBLU DEXUG SOGMA ERNUD GURLO BUMIL ALASA ALS ASBIL EKBI
TRACK DATA
50,000 ft 1,000 kts
AIRCRAFT INFO AND CUMULATIVE STATS
Aircraft Type: 
B737BW
Registration: 
SELCAL: 
NULL
MSN/LN: 
28014 / 766
Operator: 
Total Flights: 
1
Total Block Time: 
3.6 hrs
Total Flight Time: 
3.3 hrs
Total Fuel Used: 
8,865 kg
DATALINK LOG | Newest first | Current as of: 2021-08-02 19:54:45
LABEL SEQUENCE CONTENT Dn/Up
5Z50012 OCT 20 00:49:42z / FLT DECK GOOD / ACF POS GOOD / GRND SERVICES GOOD / MAINT FAILURES ACTIVE▼ Dn
QD475800:47 8▼ Dn
QC405300:40▼ Dn
2U3759EKBI 020020Z AUTO 10008KT 9999 -SHRA FEW013/// BKN067/// 14/13 Q1001▲ Up
2S3750EKBI▼ Dn
GA1236GATE G1▲ Up
GR1226EKBI 00:40 HI-VAL NO DIPL/VIP NO▼ Dn
2U0315EKBI 012350Z AUTO 10009KT 070V130 9999 -SHRA BKN009/// OVC055/// 14/13 Q1002▲ Up
2S0317EKBI▼ Dn
UM745115PROCEED DIRECT TO ASBIL▲ Up
DM225105REQUEST DIRECT TO ASBIL▼ Dn
UM204711CLEARED TO FL 380▲ Up
DM64701REQUEST FL 380 DUE TO A/C PERF▼ Dn
QB213821:21▼ Dn
QA102721:10 27.6▼ Dn
5Z07251 OCT 20 21:06:47z / FLT DECK GOOD / ACF POS GOOD / GRND SERVICES GOOD / MAINT GOOD▼ Dn
2U0406LGSA 012020Z 25004KT 9999 FEW025 20/16 Q1012▲ Up
2S0422LGSA▼ Dn
A35825CLEARED TO EKBI VIA SOKR1K SOKRI UB1 DDM UG85 KOR UL613 XANIS UL995 VARDI UM619 YNN UL604 DIMIS RETRA NIK GAC BOSNA LURID VEBAL SASAL LANUX L858 HDO UNRIG ESIKA M748 BUMIL ALASA M852 ALS P615 ASBIL. SQUAWK 5565.▲ Up
B35816LGSA EKBI SNB4759 OY-MRI ▼ Dn
Q05412[LINK ACK]▲ Up
Q05412[LINK TEST]▼ Dn


AIRCRAFT HISTORY
FLIGHT DATE FLIGHT NO. ORIGIN DESTINATION CLEARED ROUTE BLOCK TIME FLIGHT TIME FUEL USED PILOT
2020-10-01SNB4759LGSA EKBI LGSA SOKRI IXIMA EKTOS VELOP DDM KOR RIMAX XANIS VARDI YNN DIMIS RETRA NIK GAC BOSNA LURID VEBAL SASAL LANUX OKF VLM RISUK HDO UNRIG ESIKA SUKIP SOBLU DEXUG SOGMA ERNUD GURLO BUMIL ALASA ALS ASBIL EKBI3.6 hrs3.3 hrs19,543 lbAnton Vind